sensor_id;sensor_type;location;lat;lon;timestamp;P1;durP1;ratioP1;P2;durP2;ratioP2
66523;SDS011;53350;52.210;5.160;2024-03-08T00:01:13;34.00;;;17.52;;
66523;SDS011;53350;52.210;5.160;2024-03-08T00:03:41;32.35;;;16.10;;
66523;SDS011;53350;52.210;5.160;2024-03-08T00:06:07;32.60;;;16.77;;
66523;SDS011;53350;52.210;5.160;2024-03-08T00:08:35;20.95;;;11.43;;
66523;SDS011;53350;52.210;5.160;2024-03-08T00:11:02;25.73;;;13.30;;
66523;SDS011;53350;52.210;5.160;2024-03-08T00:13:28;30.55;;;16.00;;
66523;SDS011;53350;52.210;5.160;2024-03-08T00:15:55;33.58;;;17.58;;
66523;SDS011;53350;52.210;5.160;2024-03-08T00:18:22;30.53;;;15.67;;
66523;SDS011;53350;52.210;5.160;2024-03-08T00:20:49;33.00;;;15.25;;
66523;SDS011;53350;52.210;5.160;2024-03-08T00:23:16;33.50;;;17.65;;
66523;SDS011;53350;52.210;5.160;2024-03-08T00:25:43;31.83;;;17.42;;
66523;SDS011;53350;52.210;5.160;2024-03-08T00:28:10;35.65;;;19.27;;
66523;SDS011;53350;52.210;5.160;2024-03-08T00:30:39;27.70;;;16.38;;
66523;SDS011;53350;52.210;5.160;2024-03-08T00:33:07;30.92;;;17.23;;
66523;SDS011;53350;52.210;5.160;2024-03-08T00:35:34;27.50;;;13.32;;
66523;SDS011;53350;52.210;5.160;2024-03-08T00:38:00;31.35;;;17.30;;
66523;SDS011;53350;52.210;5.160;2024-03-08T00:40:27;31.73;;;17.10;;
66523;SDS011;53350;52.210;5.160;2024-03-08T00:42:55;35.25;;;18.00;;
66523;SDS011;53350;52.210;5.160;2024-03-08T00:45:22;31.80;;;17.30;;
66523;SDS011;53350;52.210;5.160;2024-03-08T00:47:48;32.58;;;18.75;;
66523;SDS011;53350;52.210;5.160;2024-03-08T00:50:15;28.23;;;13.90;;
66523;SDS011;53350;52.210;5.160;2024-03-08T00:52:43;33.55;;;17.50;;
66523;SDS011;53350;52.210;5.160;2024-03-08T00:55:09;35.53;;;16.20;;
66523;SDS011;53350;52.210;5.160;2024-03-08T00:57:36;29.85;;;16.58;;
66523;SDS011;53350;52.210;5.160;2024-03-08T01:00:05;32.80;;;15.98;;
66523;SDS011;53350;52.210;5.160;2024-03-08T01:02:36;32.33;;;17.45;;
66523;SDS011;53350;52.210;5.160;2024-03-08T01:05:03;28.98;;;15.40;;
66523;SDS011;53350;52.210;5.160;2024-03-08T01:07:32;33.78;;;17.30;;
66523;SDS011;53350;52.210;5.160;2024-03-08T01:09:59;28.60;;;15.60;;
66523;SDS011;53350;52.210;5.160;2024-03-08T01:12:25;35.58;;;19.38;;
66523;SDS011;53350;52.210;5.160;2024-03-08T01:14:52;27.20;;;15.95;;
66523;SDS011;53350;52.210;5.160;2024-03-08T01:17:20;31.60;;;15.55;;
66523;SDS011;53350;52.210;5.160;2024-03-08T01:19:46;37.80;;;17.50;;
66523;SDS011;53350;52.210;5.160;2024-03-08T01:22:13;30.40;;;17.70;;
66523;SDS011;53350;52.210;5.160;2024-03-08T01:24:39;31.80;;;17.15;;
66523;SDS011;53350;52.210;5.160;2024-03-08T01:27:06;30.80;;;16.83;;
66523;SDS011;53350;52.210;5.160;2024-03-08T01:29:34;29.27;;;14.25;;
66523;SDS011;53350;52.210;5.160;2024-03-08T01:32:00;30.55;;;17.40;;
66523;SDS011;53350;52.210;5.160;2024-03-08T01:34:29;33.17;;;17.45;;
66523;SDS011;53350;52.210;5.160;2024-03-08T01:36:55;30.02;;;17.58;;
66523;SDS011;53350;52.210;5.160;2024-03-08T01:39:22;33.75;;;17.17;;
66523;SDS011;53350;52.210;5.160;2024-03-08T01:41:49;24.73;;;12.07;;
66523;SDS011;53350;52.210;5.160;2024-03-08T01:44:15;27.33;;;16.80;;
66523;SDS011;53350;52.210;5.160;2024-03-08T01:46:43;32.40;;;17.27;;
66523;SDS011;53350;52.210;5.160;2024-03-08T01:49:11;30.23;;;16.48;;
66523;SDS011;53350;52.210;5.160;2024-03-08T01:51:40;28.33;;;17.20;;
66523;SDS011;53350;52.210;5.160;2024-03-08T01:54:07;34.53;;;17.77;;
66523;SDS011;53350;52.210;5.160;2024-03-08T01:56:35;30.67;;;15.65;;
66523;SDS011;53350;52.210;5.160;2024-03-08T01:59:02;37.78;;;18.02;;
66523;SDS011;53350;52.210;5.160;2024-03-08T02:01:31;24.17;;;11.52;;
66523;SDS011;53350;52.210;5.160;2024-03-08T02:03:58;33.17;;;17.17;;
66523;SDS011;53350;52.210;5.160;2024-03-08T02:06:25;23.10;;;12.02;;
66523;SDS011;53350;52.210;5.160;2024-03-08T02:08:53;25.13;;;13.40;;
66523;SDS011;53350;52.210;5.160;2024-03-08T02:11:19;28.33;;;15.18;;
66523;SDS011;53350;52.210;5.160;2024-03-08T02:13:46;31.50;;;16.70;;
66523;SDS011;53350;52.210;5.160;2024-03-08T02:16:13;32.63;;;17.10;;
66523;SDS011;53350;52.210;5.160;2024-03-08T02:18:46;32.85;;;17.58;;
66523;SDS011;53350;52.210;5.160;2024-03-08T02:21:14;33.65;;;18.42;;
66523;SDS011;53350;52.210;5.160;2024-03-08T02:23:43;30.08;;;16.50;;
66523;SDS011;53350;52.210;5.160;2024-03-08T02:26:10;30.10;;;16.90;;
66523;SDS011;53350;52.210;5.160;2024-03-08T02:28:36;32.55;;;17.98;;
66523;SDS011;53350;52.210;5.160;2024-03-08T02:31:03;32.00;;;17.80;;
66523;SDS011;53350;52.210;5.160;2024-03-08T02:33:33;30.13;;;17.70;;
66523;SDS011;53350;52.210;5.160;2024-03-08T02:35:59;39.60;;;18.80;;
66523;SDS011;53350;52.210;5.160;2024-03-08T02:38:27;34.97;;;16.73;;
66523;SDS011;53350;52.210;5.160;2024-03-08T02:40:54;30.92;;;17.13;;
66523;SDS011;53350;52.210;5.160;2024-03-08T02:43:20;29.17;;;16.30;;
66523;SDS011;53350;52.210;5.160;2024-03-08T02:45:49;34.90;;;17.17;;
66523;SDS011;53350;52.210;5.160;2024-03-08T02:48:17;33.65;;;17.27;;
66523;SDS011;53350;52.210;5.160;2024-03-08T02:50:44;34.45;;;17.58;;
66523;SDS011;53350;52.210;5.160;2024-03-08T02:53:11;25.80;;;14.02;;
66523;SDS011;53350;52.210;5.160;2024-03-08T02:55:40;29.90;;;17.23;;
66523;SDS011;53350;52.210;5.160;2024-03-08T02:58:07;29.92;;;16.40;;
66523;SDS011;53350;52.210;5.160;2024-03-08T03:00:35;35.57;;;19.10;;
66523;SDS011;53350;52.210;5.160;2024-03-08T03:03:02;32.08;;;17.55;;
66523;SDS011;53350;52.210;5.160;2024-03-08T03:05:29;37.97;;;17.75;;
66523;SDS011;53350;52.210;5.160;2024-03-08T03:07:56;34.53;;;19.08;;
66523;SDS011;53350;52.210;5.160;2024-03-08T03:10:23;28.83;;;15.40;;
66523;SDS011;53350;52.210;5.160;2024-03-08T03:12:51;34.22;;;18.75;;
66523;SDS011;53350;52.210;5.160;2024-03-08T03:15:18;27.30;;;15.50;;
66523;SDS011;53350;52.210;5.160;2024-03-08T03:17:45;25.75;;;13.98;;
66523;SDS011;53350;52.210;5.160;2024-03-08T03:20:12;30.77;;;16.88;;
66523;SDS011;53350;52.210;5.160;2024-03-08T03:22:39;29.15;;;16.42;;
66523;SDS011;53350;52.210;5.160;2024-03-08T03:25:07;29.38;;;16.38;;
66523;SDS011;53350;52.210;5.160;2024-03-08T03:27:34;30.60;;;15.98;;
66523;SDS011;53350;52.210;5.160;2024-03-08T03:30:03;30.95;;;16.67;;
66523;SDS011;53350;52.210;5.160;2024-03-08T03:32:45;30.65;;;16.35;;
66523;SDS011;53350;52.210;5.160;2024-03-08T03:35:12;26.40;;;15.27;;
66523;SDS011;53350;52.210;5.160;2024-03-08T03:37:39;27.15;;;13.10;;
66523;SDS011;53350;52.210;5.160;2024-03-08T03:40:08;35.85;;;18.50;;
66523;SDS011;53350;52.210;5.160;2024-03-08T03:42:34;30.60;;;15.73;;
66523;SDS011;53350;52.210;5.160;2024-03-08T03:45:05;32.13;;;17.42;;
66523;SDS011;53350;52.210;5.160;2024-03-08T03:47:32;23.90;;;12.68;;
66523;SDS011;53350;52.210;5.160;2024-03-08T03:49:58;31.98;;;17.50;;
66523;SDS011;53350;52.210;5.160;2024-03-08T03:54:53;25.50;;;15.73;;
66523;SDS011;53350;52.210;5.160;2024-03-08T03:57:19;29.88;;;18.25;;
66523;SDS011;53350;52.210;5.160;2024-03-08T03:59:48;29.77;;;16.10;;
66523;SDS011;53350;52.210;5.160;2024-03-08T04:02:17;34.80;;;19.05;;
66523;SDS011;53350;52.210;5.160;2024-03-08T04:04:45;21.58;;;10.25;;
66523;SDS011;53350;52.210;5.160;2024-03-08T04:07:12;29.27;;;17.38;;
66523;SDS011;53350;52.210;5.160;2024-03-08T04:09:39;34.10;;;19.77;;
66523;SDS011;53350;52.210;5.160;2024-03-08T04:12:05;31.38;;;18.58;;
66523;SDS011;53350;52.210;5.160;2024-03-08T04:14:32;33.42;;;17.10;;
66523;SDS011;53350;52.210;5.160;2024-03-08T04:16:59;31.02;;;16.05;;
66523;SDS011;53350;52.210;5.160;2024-03-08T04:19:27;27.92;;;16.08;;
66523;SDS011;53350;52.210;5.160;2024-03-08T04:21:54;28.00;;;15.60;;
66523;SDS011;53350;52.210;5.160;2024-03-08T04:24:20;31.05;;;18.25;;
66523;SDS011;53350;52.210;5.160;2024-03-08T04:26:47;31.17;;;17.88;;
66523;SDS011;53350;52.210;5.160;2024-03-08T04:29:13;28.52;;;17.35;;
66523;SDS011;53350;52.210;5.160;2024-03-08T04:31:40;29.17;;;16.08;;
66523;SDS011;53350;52.210;5.160;2024-03-08T04:34:06;25.25;;;14.23;;
66523;SDS011;53350;52.210;5.160;2024-03-08T04:36:34;29.55;;;17.45;;
66523;SDS011;53350;52.210;5.160;2024-03-08T04:39:01;29.20;;;15.50;;
66523;SDS011;53350;52.210;5.160;2024-03-08T04:41:28;30.52;;;17.30;;
66523;SDS011;53350;52.210;5.160;2024-03-08T04:43:55;30.02;;;17.20;;
66523;SDS011;53350;52.210;5.160;2024-03-08T04:46:22;25.65;;;15.10;;
66523;SDS011;53350;52.210;5.160;2024-03-08T04:48:49;29.63;;;17.17;;
66523;SDS011;53350;52.210;5.160;2024-03-08T04:51:15;29.70;;;17.52;;
66523;SDS011;53350;52.210;5.160;2024-03-08T04:53:45;32.38;;;17.92;;
66523;SDS011;53350;52.210;5.160;2024-03-08T04:56:12;29.70;;;19.38;;
66523;SDS011;53350;52.210;5.160;2024-03-08T04:58:38;32.90;;;19.92;;
66523;SDS011;53350;52.210;5.160;2024-03-08T05:01:04;32.83;;;18.38;;
66523;SDS011;53350;52.210;5.160;2024-03-08T05:03:31;27.42;;;17.25;;
66523;SDS011;53350;52.210;5.160;2024-03-08T05:05:57;31.27;;;18.30;;
66523;SDS011;53350;52.210;5.160;2024-03-08T05:08:24;30.58;;;17.13;;
66523;SDS011;53350;52.210;5.160;2024-03-08T05:10:52;29.00;;;17.50;;
66523;SDS011;53350;52.210;5.160;2024-03-08T05:13:18;30.25;;;15.98;;
66523;SDS011;53350;52.210;5.160;2024-03-08T05:15:47;33.63;;;18.65;;
66523;SDS011;53350;52.210;5.160;2024-03-08T05:18:15;20.27;;;10.98;;
66523;SDS011;53350;52.210;5.160;2024-03-08T05:20:41;30.40;;;17.17;;
66523;SDS011;53350;52.210;5.160;2024-03-08T05:23:07;32.08;;;17.75;;
66523;SDS011;53350;52.210;5.160;2024-03-08T05:25:34;33.90;;;20.35;;
66523;SDS011;53350;52.210;5.160;2024-03-08T05:28:02;24.63;;;14.75;;
66523;SDS011;53350;52.210;5.160;2024-03-08T05:32:57;27.10;;;16.48;;
66523;SDS011;53350;52.210;5.160;2024-03-08T05:35:23;28.60;;;16.92;;
66523;SDS011;53350;52.210;5.160;2024-03-08T05:37:50;26.88;;;15.77;;
66523;SDS011;53350;52.210;5.160;2024-03-08T05:40:16;29.30;;;15.52;;
66523;SDS011;53350;52.210;5.160;2024-03-08T05:42:42;27.17;;;15.80;;
66523;SDS011;53350;52.210;5.160;2024-03-08T05:45:10;31.05;;;19.13;;
66523;SDS011;53350;52.210;5.160;2024-03-08T05:47:38;28.45;;;15.30;;
66523;SDS011;53350;52.210;5.160;2024-03-08T05:50:05;25.92;;;12.30;;
66523;SDS011;53350;52.210;5.160;2024-03-08T05:52:35;28.10;;;17.10;;
66523;SDS011;53350;52.210;5.160;2024-03-08T05:55:03;27.33;;;17.20;;
66523;SDS011;53350;52.210;5.160;2024-03-08T05:57:32;31.13;;;17.83;;
66523;SDS011;53350;52.210;5.160;2024-03-08T05:59:58;29.05;;;16.88;;
66523;SDS011;53350;52.210;5.160;2024-03-08T06:02:26;26.65;;;16.58;;
66523;SDS011;53350;52.210;5.160;2024-03-08T06:04:52;24.90;;;15.25;;
66523;SDS011;53350;52.210;5.160;2024-03-08T06:07:19;24.75;;;16.67;;
66523;SDS011;53350;52.210;5.160;2024-03-08T06:09:45;31.20;;;18.15;;
66523;SDS011;53350;52.210;5.160;2024-03-08T06:12:13;28.17;;;17.55;;
66523;SDS011;53350;52.210;5.160;2024-03-08T06:14:43;29.90;;;18.05;;
66523;SDS011;53350;52.210;5.160;2024-03-08T06:17:10;30.15;;;18.27;;
66523;SDS011;53350;52.210;5.160;2024-03-08T06:19:38;26.83;;;17.98;;
66523;SDS011;53350;52.210;5.160;2024-03-08T06:22:04;22.88;;;13.93;;
66523;SDS011;53350;52.210;5.160;2024-03-08T06:24:31;28.83;;;13.98;;
66523;SDS011;53350;52.210;5.160;2024-03-08T06:26:57;28.65;;;15.95;;
66523;SDS011;53350;52.210;5.160;2024-03-08T06:29:24;24.98;;;15.95;;
66523;SDS011;53350;52.210;5.160;2024-03-08T06:31:51;24.67;;;15.65;;
66523;SDS011;53350;52.210;5.160;2024-03-08T06:34:18;27.45;;;16.98;;
66523;SDS011;53350;52.210;5.160;2024-03-08T06:36:46;28.08;;;15.93;;
66523;SDS011;53350;52.210;5.160;2024-03-08T06:39:12;30.70;;;18.05;;
66523;SDS011;53350;52.210;5.160;2024-03-08T06:41:39;31.20;;;18.35;;
66523;SDS011;53350;52.210;5.160;2024-03-08T06:44:05;28.85;;;18.27;;
66523;SDS011;53350;52.210;5.160;2024-03-08T06:46:32;30.20;;;17.17;;
66523;SDS011;53350;52.210;5.160;2024-03-08T06:48:59;25.95;;;15.00;;
66523;SDS011;53350;52.210;5.160;2024-03-08T06:51:26;24.58;;;14.82;;
66523;SDS011;53350;52.210;5.160;2024-03-08T06:53:54;30.30;;;18.67;;
66523;SDS011;53350;52.210;5.160;2024-03-08T06:56:20;29.98;;;18.92;;
66523;SDS011;53350;52.210;5.160;2024-03-08T06:58:47;30.33;;;16.73;;
66523;SDS011;53350;52.210;5.160;2024-03-08T07:01:14;25.40;;;13.30;;
66523;SDS011;53350;52.210;5.160;2024-03-08T07:03:41;25.73;;;17.27;;
66523;SDS011;53350;52.210;5.160;2024-03-08T07:08:35;31.27;;;17.08;;
66523;SDS011;53350;52.210;5.160;2024-03-08T07:11:03;27.33;;;13.60;;
66523;SDS011;53350;52.210;5.160;2024-03-08T07:13:30;32.50;;;18.33;;
66523;SDS011;53350;52.210;5.160;2024-03-08T07:15:56;28.33;;;18.15;;
66523;SDS011;53350;52.210;5.160;2024-03-08T07:20:52;29.37;;;17.00;;
66523;SDS011;53350;52.210;5.160;2024-03-08T07:23:19;18.38;;;10.40;;
66523;SDS011;53350;52.210;5.160;2024-03-08T07:25:59;25.95;;;14.77;;
66523;SDS011;53350;52.210;5.160;2024-03-08T07:28:27;24.90;;;14.63;;
66523;SDS011;53350;52.210;5.160;2024-03-08T07:30:55;30.33;;;16.02;;
66523;SDS011;53350;52.210;5.160;2024-03-08T07:33:33;28.42;;;17.45;;
66523;SDS011;53350;52.210;5.160;2024-03-08T07:36:00;25.52;;;14.23;;
66523;SDS011;53350;52.210;5.160;2024-03-08T07:38:26;28.40;;;16.65;;
66523;SDS011;53350;52.210;5.160;2024-03-08T07:40:53;32.63;;;16.92;;
66523;SDS011;53350;52.210;5.160;2024-03-08T07:43:19;25.45;;;15.70;;
66523;SDS011;53350;52.210;5.160;2024-03-08T07:45:48;26.80;;;15.43;;
66523;SDS011;53350;52.210;5.160;2024-03-08T07:48:16;25.38;;;15.32;;
66523;SDS011;53350;52.210;5.160;2024-03-08T07:50:42;26.58;;;15.55;;
66523;SDS011;53350;52.210;5.160;2024-03-08T07:53:09;25.02;;;13.80;;
66523;SDS011;53350;52.210;5.160;2024-03-08T07:55:36;25.63;;;15.18;;
66523;SDS011;53350;52.210;5.160;2024-03-08T07:58:02;21.50;;;12.93;;
66523;SDS011;53350;52.210;5.160;2024-03-08T08:00:29;24.98;;;14.23;;
66523;SDS011;53350;52.210;5.160;2024-03-08T08:02:57;24.83;;;13.98;;
66523;SDS011;53350;52.210;5.160;2024-03-08T08:05:24;32.00;;;19.15;;
66523;SDS011;53350;52.210;5.160;2024-03-08T08:07:51;27.55;;;17.60;;
66523;SDS011;53350;52.210;5.160;2024-03-08T08:10:18;20.65;;;12.38;;
66523;SDS011;53350;52.210;5.160;2024-03-08T08:15:13;24.67;;;14.52;;
66523;SDS011;53350;52.210;5.160;2024-03-08T08:17:40;19.13;;;11.75;;
66523;SDS011;53350;52.210;5.160;2024-03-08T08:20:08;26.52;;;16.13;;
66523;SDS011;53350;52.210;5.160;2024-03-08T08:22:36;29.60;;;18.15;;
66523;SDS011;53350;52.210;5.160;2024-03-08T08:25:03;26.98;;;17.05;;
66523;SDS011;53350;52.210;5.160;2024-03-08T08:27:30;20.42;;;12.18;;
66523;SDS011;53350;52.210;5.160;2024-03-08T08:29:56;28.60;;;17.23;;
66523;SDS011;53350;52.210;5.160;2024-03-08T08:32:23;26.13;;;15.07;;
66523;SDS011;53350;52.210;5.160;2024-03-08T08:34:49;21.83;;;13.30;;
66523;SDS011;53350;52.210;5.160;2024-03-08T08:37:18;23.98;;;15.65;;
66523;SDS011;53350;52.210;5.160;2024-03-08T08:39:44;27.52;;;17.17;;
66523;SDS011;53350;52.210;5.160;2024-03-08T08:42:10;27.77;;;16.85;;
66523;SDS011;53350;52.210;5.160;2024-03-08T08:44:37;26.55;;;15.68;;
66523;SDS011;53350;52.210;5.160;2024-03-08T08:47:04;30.73;;;16.55;;
66523;SDS011;53350;52.210;5.160;2024-03-08T08:49:31;29.15;;;18.30;;
66523;SDS011;53350;52.210;5.160;2024-03-08T08:51:57;23.80;;;13.90;;
66523;SDS011;53350;52.210;5.160;2024-03-08T08:54:25;26.55;;;15.05;;
66523;SDS011;53350;52.210;5.160;2024-03-08T08:56:52;28.45;;;17.55;;
66523;SDS011;53350;52.210;5.160;2024-03-08T08:59:19;27.77;;;18.58;;
66523;SDS011;53350;52.210;5.160;2024-03-08T09:04:17;26.27;;;15.60;;
66523;SDS011;53350;52.210;5.160;2024-03-08T09:06:44;30.48;;;18.15;;
66523;SDS011;53350;52.210;5.160;2024-03-08T09:09:11;20.08;;;12.23;;
66523;SDS011;53350;52.210;5.160;2024-03-08T09:11:39;18.23;;;11.88;;
66523;SDS011;53350;52.210;5.160;2024-03-08T09:14:07;23.48;;;14.30;;
66523;SDS011;53350;52.210;5.160;2024-03-08T09:16:33;27.65;;;17.17;;
66523;SDS011;53350;52.210;5.160;2024-03-08T09:19:00;24.95;;;15.20;;
66523;SDS011;53350;52.210;5.160;2024-03-08T09:21:26;19.42;;;11.23;;
66523;SDS011;53350;52.210;5.160;2024-03-08T09:23:53;19.70;;;10.68;;
66523;SDS011;53350;52.210;5.160;2024-03-08T09:26:19;24.40;;;13.98;;
66523;SDS011;53350;52.210;5.160;2024-03-08T09:28:48;24.53;;;11.57;;
66523;SDS011;53350;52.210;5.160;2024-03-08T09:31:15;26.63;;;17.60;;
66523;SDS011;53350;52.210;5.160;2024-03-08T09:33:41;23.27;;;13.52;;
66523;SDS011;53350;52.210;5.160;2024-03-08T09:36:08;27.73;;;15.20;;
66523;SDS011;53350;52.210;5.160;2024-03-08T09:38:34;23.20;;;13.63;;
66523;SDS011;53350;52.210;5.160;2024-03-08T09:41:01;28.80;;;15.15;;
66523;SDS011;53350;52.210;5.160;2024-03-08T09:43:29;30.33;;;17.65;;
66523;SDS011;53350;52.210;5.160;2024-03-08T09:45:57;26.75;;;17.45;;
66523;SDS011;53350;52.210;5.160;2024-03-08T09:50:51;21.08;;;13.43;;
66523;SDS011;53350;52.210;5.160;2024-03-08T09:53:19;21.00;;;12.90;;
66523;SDS011;53350;52.210;5.160;2024-03-08T09:55:47;24.83;;;15.88;;
66523;SDS011;53350;52.210;5.160;2024-03-08T09:58:15;28.10;;;16.35;;
66523;SDS011;53350;52.210;5.160;2024-03-08T10:00:57;25.48;;;16.75;;
66523;SDS011;53350;52.210;5.160;2024-03-08T10:03:23;19.77;;;12.60;;
66523;SDS011;53350;52.210;5.160;2024-03-08T10:05:51;26.92;;;15.70;;
66523;SDS011;53350;52.210;5.160;2024-03-08T10:08:17;22.40;;;13.18;;
66523;SDS011;53350;52.210;5.160;2024-03-08T10:10:45;23.33;;;14.27;;
66523;SDS011;53350;52.210;5.160;2024-03-08T10:13:11;24.45;;;13.10;;
66523;SDS011;53350;52.210;5.160;2024-03-08T10:15:41;23.60;;;13.30;;
66523;SDS011;53350;52.210;5.160;2024-03-08T10:18:09;21.45;;;11.82;;
66523;SDS011;53350;52.210;5.160;2024-03-08T10:20:36;26.05;;;16.23;;
66523;SDS011;53350;52.210;5.160;2024-03-08T10:23:03;25.30;;;15.43;;
66523;SDS011;53350;52.210;5.160;2024-03-08T10:25:30;25.42;;;14.30;;
66523;SDS011;53350;52.210;5.160;2024-03-08T10:27:56;21.13;;;11.60;;
66523;SDS011;53350;52.210;5.160;2024-03-08T10:30:23;26.23;;;17.35;;
66523;SDS011;53350;52.210;5.160;2024-03-08T10:32:49;15.55;;;9.32;;
66523;SDS011;53350;52.210;5.160;2024-03-08T10:35:18;25.08;;;15.98;;
66523;SDS011;53350;52.210;5.160;2024-03-08T10:37:46;24.05;;;14.82;;
66523;SDS011;53350;52.210;5.160;2024-03-08T10:40:15;24.60;;;16.08;;
66523;SDS011;53350;52.210;5.160;2024-03-08T10:42:47;26.17;;;16.10;;
66523;SDS011;53350;52.210;5.160;2024-03-08T10:45:20;19.60;;;12.43;;
66523;SDS011;53350;52.210;5.160;2024-03-08T10:47:59;21.23;;;12.88;;
66523;SDS011;53350;52.210;5.160;2024-03-08T10:50:37;25.52;;;15.20;;
66523;SDS011;53350;52.210;5.160;2024-03-08T10:53:04;25.00;;;14.93;;
66523;SDS011;53350;52.210;5.160;2024-03-08T10:55:32;24.88;;;16.33;;
66523;SDS011;53350;52.210;5.160;2024-03-08T10:57:59;25.00;;;15.90;;
66523;SDS011;53350;52.210;5.160;2024-03-08T11:00:26;22.17;;;14.93;;
66523;SDS011;53350;52.210;5.160;2024-03-08T11:02:53;18.98;;;12.32;;
66523;SDS011;53350;52.210;5.160;2024-03-08T11:05:31;22.85;;;12.75;;
66523;SDS011;53350;52.210;5.160;2024-03-08T11:08:01;16.90;;;10.32;;
66523;SDS011;53350;52.210;5.160;2024-03-08T11:10:29;22.95;;;15.02;;
66523;SDS011;53350;52.210;5.160;2024-03-08T11:12:55;23.98;;;14.10;;
66523;SDS011;53350;52.210;5.160;2024-03-08T11:15:23;19.83;;;12.52;;
66523;SDS011;53350;52.210;5.160;2024-03-08T11:17:50;23.77;;;15.20;;
66523;SDS011;53350;52.210;5.160;2024-03-08T11:20:20;20.85;;;12.68;;
66523;SDS011;53350;52.210;5.160;2024-03-08T11:22:50;23.63;;;13.95;;
66523;SDS011;53350;52.210;5.160;2024-03-08T11:25:32;21.50;;;11.18;;
66523;SDS011;53350;52.210;5.160;2024-03-08T11:28:14;21.98;;;14.38;;
66523;SDS011;53350;52.210;5.160;2024-03-08T11:30:45;20.88;;;13.68;;
66523;SDS011;53350;52.210;5.160;2024-03-08T11:33:34;18.85;;;11.05;;
66523;SDS011;53350;52.210;5.160;2024-03-08T11:36:02;22.65;;;13.55;;
66523;SDS011;53350;52.210;5.160;2024-03-08T11:38:31;18.45;;;11.75;;
66523;SDS011;53350;52.210;5.160;2024-03-08T11:40:59;22.80;;;15.07;;
66523;SDS011;53350;52.210;5.160;2024-03-08T11:43:26;22.65;;;13.65;;
66523;SDS011;53350;52.210;5.160;2024-03-08T11:46:03;20.13;;;13.10;;
66523;SDS011;53350;52.210;5.160;2024-03-08T11:48:34;20.60;;;13.88;;
66523;SDS011;53350;52.210;5.160;2024-03-08T11:51:01;19.05;;;12.30;;
66523;SDS011;53350;52.210;5.160;2024-03-08T11:53:28;23.58;;;14.13;;
66523;SDS011;53350;52.210;5.160;2024-03-08T11:55:54;18.08;;;11.70;;
66523;SDS011;53350;52.210;5.160;2024-03-08T11:58:32;23.42;;;16.02;;
66523;SDS011;53350;52.210;5.160;2024-03-08T12:01:02;17.98;;;12.15;;
66523;SDS011;53350;52.210;5.160;2024-03-08T12:03:30;22.50;;;13.88;;
66523;SDS011;53350;52.210;5.160;2024-03-08T12:05:58;22.35;;;14.15;;
66523;SDS011;53350;52.210;5.160;2024-03-08T12:08:25;22.67;;;13.70;;
66523;SDS011;53350;52.210;5.160;2024-03-08T12:10:53;25.85;;;15.65;;
66523;SDS011;53350;52.210;5.160;2024-03-08T12:13:24;23.15;;;13.75;;
66523;SDS011;53350;52.210;5.160;2024-03-08T12:15:55;18.00;;;10.57;;
66523;SDS011;53350;52.210;5.160;2024-03-08T12:18:23;17.77;;;12.55;;
66523;SDS011;53350;52.210;5.160;2024-03-08T12:20:50;18.05;;;9.75;;
66523;SDS011;53350;52.210;5.160;2024-03-08T12:23:16;19.30;;;12.07;;
66523;SDS011;53350;52.210;5.160;2024-03-08T12:25:43;18.80;;;11.57;;
66523;SDS011;53350;52.210;5.160;2024-03-08T12:28:10;18.73;;;9.05;;
66523;SDS011;53350;52.210;5.160;2024-03-08T12:30:43;19.10;;;12.20;;
66523;SDS011;53350;52.210;5.160;2024-03-08T12:33:14;14.85;;;9.27;;
66523;SDS011;53350;52.210;5.160;2024-03-08T12:35:49;21.33;;;12.73;;
66523;SDS011;53350;52.210;5.160;2024-03-08T12:38:18;20.67;;;11.68;;
66523;SDS011;53350;52.210;5.160;2024-03-08T12:40:49;16.25;;;10.35;;
66523;SDS011;53350;52.210;5.160;2024-03-08T12:43:16;14.02;;;8.35;;
66523;SDS011;53350;52.210;5.160;2024-03-08T12:45:43;20.15;;;12.10;;
66523;SDS011;53350;52.210;5.160;2024-03-08T12:48:12;17.05;;;10.70;;
66523;SDS011;53350;52.210;5.160;2024-03-08T12:50:41;16.67;;;10.75;;
66523;SDS011;53350;52.210;5.160;2024-03-08T12:53:09;19.75;;;11.65;;
66523;SDS011;53350;52.210;5.160;2024-03-08T12:55:35;18.67;;;11.77;;
66523;SDS011;53350;52.210;5.160;2024-03-08T12:58:01;20.15;;;11.23;;
66523;SDS011;53350;52.210;5.160;2024-03-08T13:00:28;18.17;;;10.70;;
66523;SDS011;53350;52.210;5.160;2024-03-08T13:02:55;17.20;;;11.02;;
66523;SDS011;53350;52.210;5.160;2024-03-08T13:05:21;20.23;;;11.13;;
66523;SDS011;53350;52.210;5.160;2024-03-08T13:07:49;14.13;;;8.65;;
66523;SDS011;53350;52.210;5.160;2024-03-08T13:10:16;17.40;;;11.32;;
66523;SDS011;53350;52.210;5.160;2024-03-08T13:12:45;18.17;;;12.52;;
66523;SDS011;53350;52.210;5.160;2024-03-08T13:15:11;17.83;;;9.55;;
66523;SDS011;53350;52.210;5.160;2024-03-08T13:17:45;16.83;;;9.75;;
66523;SDS011;53350;52.210;5.160;2024-03-08T13:20:11;17.02;;;11.23;;
66523;SDS011;53350;52.210;5.160;2024-03-08T13:22:42;15.88;;;9.18;;
66523;SDS011;53350;52.210;5.160;2024-03-08T13:25:10;16.70;;;10.30;;
66523;SDS011;53350;52.210;5.160;2024-03-08T13:27:38;18.95;;;11.30;;
66523;SDS011;53350;52.210;5.160;2024-03-08T13:30:06;14.68;;;8.30;;
66523;SDS011;53350;52.210;5.160;2024-03-08T13:32:36;16.55;;;10.07;;
66523;SDS011;53350;52.210;5.160;2024-03-08T13:35:04;12.48;;;7.93;;
66523;SDS011;53350;52.210;5.160;2024-03-08T13:37:37;19.70;;;10.15;;
66523;SDS011;53350;52.210;5.160;2024-03-08T13:40:05;20.75;;;12.77;;
66523;SDS011;53350;52.210;5.160;2024-03-08T13:42:37;23.50;;;12.68;;
66523;SDS011;53350;52.210;5.160;2024-03-08T13:45:04;16.50;;;9.55;;
66523;SDS011;53350;52.210;5.160;2024-03-08T13:47:33;17.10;;;10.27;;
66523;SDS011;53350;52.210;5.160;2024-03-08T13:50:00;17.35;;;9.60;;
66523;SDS011;53350;52.210;5.160;2024-03-08T13:52:27;16.75;;;11.55;;
66523;SDS011;53350;52.210;5.160;2024-03-08T13:54:54;20.35;;;11.57;;
66523;SDS011;53350;52.210;5.160;2024-03-08T13:57:20;20.08;;;12.68;;
66523;SDS011;53350;52.210;5.160;2024-03-08T13:59:49;17.90;;;13.35;;
66523;SDS011;53350;52.210;5.160;2024-03-08T14:04:42;17.25;;;11.40;;
66523;SDS011;53350;52.210;5.160;2024-03-08T14:07:09;16.85;;;9.88;;
66523;SDS011;53350;52.210;5.160;2024-03-08T14:09:36;23.17;;;12.52;;
66523;SDS011;53350;52.210;5.160;2024-03-08T14:12:08;23.67;;;12.35;;
66523;SDS011;53350;52.210;5.160;2024-03-08T14:14:34;17.48;;;10.45;;
66523;SDS011;53350;52.210;5.160;2024-03-08T14:17:03;17.10;;;10.88;;
66523;SDS011;53350;52.210;5.160;2024-03-08T14:19:31;19.00;;;13.07;;
66523;SDS011;53350;52.210;5.160;2024-03-08T14:21:59;18.98;;;12.27;;
66523;SDS011;53350;52.210;5.160;2024-03-08T14:24:25;19.48;;;11.85;;
66523;SDS011;53350;52.210;5.160;2024-03-08T14:26:52;17.75;;;12.18;;
66523;SDS011;53350;52.210;5.160;2024-03-08T14:29:19;20.33;;;12.40;;
66523;SDS011;53350;52.210;5.160;2024-03-08T14:31:45;18.50;;;11.02;;
66523;SDS011;53350;52.210;5.160;2024-03-08T14:34:13;20.65;;;13.02;;
66523;SDS011;53350;52.210;5.160;2024-03-08T14:36:40;16.02;;;10.93;;
66523;SDS011;53350;52.210;5.160;2024-03-08T14:39:06;20.27;;;11.60;;
66523;SDS011;53350;52.210;5.160;2024-03-08T14:41:33;17.27;;;11.55;;
66523;SDS011;53350;52.210;5.160;2024-03-08T14:43:59;18.55;;;10.45;;